PWSweather.com
Personal Weather Stations
Station Observations
TAIGUM
Cashmere, BrisbaneAU 4500

CashmereBrisbaneAU 4500

Lat: -27.2949692, Lon: 152.9343974

Elevation: 125

Station Type: Vantage Pro 2

http://www.brisbaneliveweather.com

Latest ConditionsUpdated 3:45:01 PM GMT+10:10 Tuesday, Sep 1, 2015
Currently Today's Max Today's Min Today's Average
Temperature 77.0°F25.0°C 77.9°F25.5°C 68.7°F20.4°C 74.0°F23.3°C
Dew Point 35.2°F1.8°C 45.7°F7.6°C 34.9°F1.6°C 40.9°F4.9°C
Winds 5.0 mph WSW8.0 kmh WSW 6.0 mph SW9.7 kmh SW - 3.6 mph 5.8 kmh
Wind Gusts 9.0 mph14.5 kmh 12.0 mph19.3 kmh - -
Humidity 22% 43% 21% 31%
Pressure 29.91 in1012.9 mb 30.03 in1016.9 mb 29.91 in1012.9 mb -
Hour Temp Dew Point Humidity Winds Wind Gusts Pressure Precip Precip Rate Daily Precip Total
03:45 PM 77.0°F25.0°C 35.2°F1.8°C 22% 5.0 mph WSW8.0 kmh WSW 9.0 mph14.5 kmh 29.91 in1012.9 mb 0.00 in0.0 mm 0.00 in0.0 mm 0.00 in0.0 mm
03:30 PM 77.9°F25.5°C 36.0°F2.2°C 22% 4.0 mph SW6.4 kmh SW 6.0 mph9.7 kmh 29.91 in1012.9 mb 0.00 in0.0 mm 0.00 in0.0 mm 0.00 in0.0 mm
03:15 PM 77.4°F25.2°C 35.6°F2.0°C 22% 5.0 mph WSW8.0 kmh WSW 8.0 mph12.9 kmh 29.91 in1012.9 mb 0.00 in0.0 mm 0.00 in0.0 mm 0.00 in0.0 mm
03:00 PM 77.9°F25.5°C 34.9°F1.6°C 21% 5.0 mph SW8.0 kmh SW 8.0 mph12.9 kmh 29.91 in1012.9 mb 0.00 in0.0 mm 0.00 in0.0 mm 0.00 in0.0 mm
02:45 PM 77.4°F25.2°C 36.7°F2.6°C 23% 4.0 mph SW6.4 kmh SW 6.0 mph9.7 kmh 29.91 in1012.9 mb 0.00 in0.0 mm 0.00 in0.0 mm 0.00 in0.0 mm
02:30 PM 77.5°F25.3°C 37.9°F3.3°C 24% 5.0 mph SW8.0 kmh SW 9.0 mph14.5 kmh 29.92 in1013.2 mb 0.00 in0.0 mm 0.00 in0.0 mm 0.00 in0.0 mm
02:15 PM 76.8°F24.9°C 36.1°F2.3°C 23% 5.0 mph WSW8.0 kmh WSW 6.0 mph9.7 kmh 29.93 in1013.5 mb 0.00 in0.0 mm 0.00 in0.0 mm 0.00 in0.0 mm
02:00 PM 76.6°F24.8°C 38.3°F3.5°C 25% 6.0 mph SW9.7 kmh SW 12.0 mph19.3 kmh 29.93 in1013.5 mb 0.00 in0.0 mm 0.00 in0.0 mm 0.00 in0.0 mm
01:45 PM 77.2°F25.1°C 38.7°F3.7°C 25% 4.0 mph SSW6.4 kmh SSW 4.0 mph6.4 kmh 29.93 in1013.5 mb 0.00 in0.0 mm 0.00 in0.0 mm 0.00 in0.0 mm
01:30 PM 76.1°F24.5°C 39.7°F4.3°C 27% 4.0 mph W6.4 kmh W 8.0 mph12.9 kmh 29.94 in1013.9 mb 0.00 in0.0 mm 0.00 in0.0 mm 0.00 in0.0 mm
01:15 PM 76.1°F24.5°C 39.7°F4.3°C 27% 2.0 mph W3.2 kmh W 1.0 mph1.6 kmh 29.95 in1014.2 mb 0.00 in0.0 mm 0.00 in0.0 mm 0.00 in0.0 mm
01:00 PM 74.3°F23.5°C 40.8°F4.9°C 30% 2.0 mph WNW3.2 kmh WNW 4.0 mph6.4 kmh 29.95 in1014.2 mb 0.00 in0.0 mm 0.00 in0.0 mm 0.00 in0.0 mm
12:45 PM 74.7°F23.7°C 43.5°F6.4°C 33% 3.0 mph NW4.8 kmh NW 6.0 mph9.7 kmh 29.96 in1014.6 mb 0.00 in0.0 mm 0.00 in0.0 mm 0.00 in0.0 mm
12:30 PM 74.5°F23.6°C 42.6°F5.9°C 32% 2.0 mph E3.2 kmh E 4.0 mph6.4 kmh 29.96 in1014.6 mb 0.00 in0.0 mm 0.00 in0.0 mm 0.00 in0.0 mm
12:15 PM 72.3°F22.4°C 44.6°F7.0°C 37% 3.0 mph NW4.8 kmh NW 1.0 mph1.6 kmh 29.97 in1014.9 mb 0.00 in0.0 mm 0.00 in0.0 mm 0.00 in0.0 mm
12:00 PM 72.3°F22.4°C 44.6°F7.0°C 37% 3.0 mph WNW4.8 kmh WNW 6.0 mph9.7 kmh 29.98 in1015.2 mb 0.00 in0.0 mm 0.00 in0.0 mm 0.00 in0.0 mm
11:45 AM 71.6°F22.0°C 44.6°F7.0°C 38% 4.0 mph WNW6.4 kmh WNW 8.0 mph12.9 kmh 29.98 in1015.2 mb 0.00 in0.0 mm 0.00 in0.0 mm 0.00 in0.0 mm
11:30 AM 70.9°F21.6°C 44.8°F7.1°C 39% 3.0 mph NW4.8 kmh NW 4.0 mph6.4 kmh 30.00 in1015.9 mb 0.00 in0.0 mm 0.00 in0.0 mm 0.00 in0.0 mm
11:15 AM 70.9°F21.6°C 43.9°F6.6°C 38% 4.0 mph WSW6.4 kmh WSW 6.0 mph9.7 kmh 30.00 in1015.9 mb 0.00 in0.0 mm 0.00 in0.0 mm 0.00 in0.0 mm
11:00 AM 70.2°F21.2°C 41.2°F5.1°C 35% 3.0 mph WSW4.8 kmh WSW 11.0 mph17.7 kmh 30.01 in1016.3 mb 0.00 in0.0 mm 0.00 in0.0 mm 0.00 in0.0 mm
10:45 AM 69.6°F20.9°C 45.5°F7.5°C 42% 2.0 mph W3.2 kmh W 5.0 mph8.0 kmh 30.02 in1016.6 mb 0.00 in0.0 mm 0.00 in0.0 mm 0.00 in0.0 mm
10:30 AM 69.3°F20.7°C 45.7°F7.6°C 43% 4.0 mph WSW6.4 kmh WSW 8.0 mph12.9 kmh 30.03 in1016.9 mb 0.00 in0.0 mm 0.00 in0.0 mm 0.00 in0.0 mm
10:15 AM 69.3°F20.7°C 45.1°F7.3°C 42% 4.0 mph SSW6.4 kmh SSW 5.0 mph8.0 kmh 30.03 in1016.9 mb 0.00 in0.0 mm 0.00 in0.0 mm 0.00 in0.0 mm
10:00 AM 68.7°F20.4°C 45.3°F7.4°C 43% 1.0 mph WSW1.6 kmh WSW 4.0 mph6.4 kmh 30.03 in1016.9 mb 0.00 in0.0 mm 0.00 in0.0 mm 0.00 in0.0 mm
09:45 AM 67.3°F19.6°C 43.9°F6.6°C 43% 2.0 mph WSW3.2 kmh WSW 6.0 mph9.7 kmh 30.04 in1017.3 mb 0.00 in0.0 mm 0.00 in0.0 mm 0.00 in0.0 mm
09:30 AM 65.7°F18.7°C 45.3°F7.4°C 48% 2.0 mph WNW3.2 kmh WNW 2.0 mph3.2 kmh 30.04 in1017.3 mb 0.00 in0.0 mm 0.00 in0.0 mm 0.00 in0.0 mm
09:15 AM 65.5°F18.6°C 46.8°F8.2°C 51% Calm Calm -- 30.04 in1017.3 mb 0.00 in0.0 mm 0.00 in0.0 mm 0.00 in0.0 mm
09:00 AM 64.4°F18.0°C 46.9°F8.3°C 53% 1.0 mph W1.6 kmh W 6.0 mph9.7 kmh 30.05 in1017.6 mb 0.00 in0.0 mm 0.00 in0.0 mm 0.00 in0.0 mm
08:45 AM 63.3°F17.4°C 46.4°F8.0°C 54% 1.0 mph WNW1.6 kmh WNW 2.0 mph3.2 kmh 30.05 in1017.6 mb 0.00 in0.0 mm 0.00 in0.0 mm 0.00 in0.0 mm
08:30 AM 61.5°F16.4°C 45.1°F7.3°C 55% 2.0 mph NW3.2 kmh NW 5.0 mph8.0 kmh 30.05 in1017.6 mb 0.00 in0.0 mm 0.00 in0.0 mm 0.00 in0.0 mm
08:15 AM 62.1°F16.7°C 47.5°F8.6°C 59% Calm Calm 1.0 mph1.6 kmh 30.04 in1017.3 mb 0.00 in0.0 mm 0.00 in0.0 mm 0.00 in0.0 mm
08:00 AM 59.9°F15.5°C 46.4°F8.0°C 61% Calm Calm 2.0 mph3.2 kmh 30.04 in1017.3 mb 0.00 in0.0 mm 0.00 in0.0 mm 0.00 in0.0 mm
07:45 AM 59.5°F15.3°C 46.6°F8.1°C 62% Calm Calm -- 30.03 in1016.9 mb 0.00 in0.0 mm 0.00 in0.0 mm 0.00 in0.0 mm
07:30 AM 55.6°F13.1°C 47.5°F8.6°C 74% Calm Calm 1.0 mph1.6 kmh 30.03 in1016.9 mb 0.00 in0.0 mm 0.00 in0.0 mm 0.00 in0.0 mm
07:15 AM 52.2°F11.2°C 46.4°F8.0°C 81% Calm Calm -- 30.02 in1016.6 mb 0.00 in0.0 mm 0.00 in0.0 mm 0.00 in0.0 mm
07:00 AM 47.5°F8.6°C 43.9°F6.6°C 87% Calm Calm -- 30.01 in1016.3 mb 0.00 in0.0 mm 0.00 in0.0 mm 0.00 in0.0 mm
06:45 AM 46.6°F8.1°C 43.2°F6.2°C 88% Calm Calm -- 30.02 in1016.6 mb 0.00 in0.0 mm 0.00 in0.0 mm 0.00 in0.0 mm
06:30 AM 45.9°F7.7°C 42.3°F5.7°C 87% Calm Calm -- 30.01 in1016.3 mb 0.00 in0.0 mm 0.00 in0.0 mm 0.00 in0.0 mm
06:15 AM 46.2°F7.9°C 41.9°F5.5°C 85% Calm Calm -- 30.01 in1016.3 mb 0.00 in0.0 mm 0.00 in0.0 mm 0.00 in0.0 mm
06:00 AM 46.8°F8.2°C 42.3°F5.7°C 84% 1.0 mph SSW1.6 kmh SSW 1.0 mph1.6 kmh 30.00 in1015.9 mb 0.00 in0.0 mm 0.00 in0.0 mm 0.00 in0.0 mm
05:45 AM 47.5°F8.6°C 42.3°F5.7°C 82% Calm Calm 4.0 mph6.4 kmh 29.99 in1015.6 mb 0.00 in0.0 mm 0.00 in0.0 mm 0.00 in0.0 mm
05:30 AM 48.7°F9.3°C 42.8°F6.0°C 80% 1.0 mph SW1.6 kmh SW 1.0 mph1.6 kmh 29.99 in1015.6 mb 0.00 in0.0 mm 0.00 in0.0 mm 0.00 in0.0 mm
05:15 AM 49.6°F9.8°C 42.8°F6.0°C 77% 1.0 mph SSW1.6 kmh SSW -- 29.99 in1015.6 mb 0.00 in0.0 mm 0.00 in0.0 mm 0.00 in0.0 mm
05:00 AM 50.9°F10.5°C 43.0°F6.1°C 74% 1.0 mph SSW1.6 kmh SSW 1.0 mph1.6 kmh 29.98 in1015.2 mb 0.00 in0.0 mm 0.00 in0.0 mm 0.00 in0.0 mm
04:45 AM 52.3°F11.3°C 43.2°F6.2°C 71% 1.0 mph SW1.6 kmh SW 2.0 mph3.2 kmh 29.98 in1015.2 mb 0.00 in0.0 mm 0.00 in0.0 mm 0.00 in0.0 mm
04:30 AM 53.8°F12.1°C 42.6°F5.9°C 66% 2.0 mph SW3.2 kmh SW 5.0 mph8.0 kmh 29.98 in1015.2 mb 0.00 in0.0 mm 0.00 in0.0 mm 0.00 in0.0 mm
04:15 AM 55.4°F13.0°C 42.6°F5.9°C 62% 3.0 mph SW4.8 kmh SW 5.0 mph8.0 kmh 29.98 in1015.2 mb 0.00 in0.0 mm 0.00 in0.0 mm 0.00 in0.0 mm
04:00 AM 54.3°F12.4°C 42.8°F6.0°C 65% 4.0 mph SW6.4 kmh SW 11.0 mph17.7 kmh 29.98 in1015.2 mb 0.00 in0.0 mm 0.00 in0.0 mm 0.00 in0.0 mm
03:45 AM 52.3°F11.3°C 42.8°F6.0°C 70% Calm Calm 1.0 mph1.6 kmh 29.98 in1015.2 mb 0.00 in0.0 mm 0.00 in0.0 mm 0.00 in0.0 mm
03:30 AM 53.2°F11.8°C 43.3°F6.3°C 69% Calm Calm 1.0 mph1.6 kmh 29.98 in1015.2 mb 0.00 in0.0 mm 0.00 in0.0 mm 0.00 in0.0 mm
03:15 AM 52.9°F11.6°C 43.0°F6.1°C 69% 1.0 mph SW1.6 kmh SW 5.0 mph8.0 kmh 29.98 in1015.2 mb 0.00 in0.0 mm 0.00 in0.0 mm 0.00 in0.0 mm
03:00 AM 54.1°F12.3°C 43.2°F6.2°C 66% Calm Calm -- 29.98 in1015.2 mb 0.00 in0.0 mm 0.00 in0.0 mm 0.00 in0.0 mm
02:45 AM 55.8°F13.2°C 43.0°F6.1°C 62% 1.0 mph SW1.6 kmh SW -- 29.97 in1014.9 mb 0.00 in0.0 mm 0.00 in0.0 mm 0.00 in0.0 mm
02:30 AM 56.8°F13.8°C 42.3°F5.7°C 58% 3.0 mph SW4.8 kmh SW 4.0 mph6.4 kmh 29.98 in1015.2 mb 0.00 in0.0 mm 0.00 in0.0 mm 0.00 in0.0 mm
02:15 AM 57.6°F14.2°C 42.4°F5.8°C 57% 4.0 mph SW6.4 kmh SW 4.0 mph6.4 kmh 29.98 in1015.2 mb 0.00 in0.0 mm 0.00 in0.0 mm 0.00 in0.0 mm
02:00 AM 57.7°F14.3°C 42.6°F5.9°C 57% 5.0 mph SW8.0 kmh SW 9.0 mph14.5 kmh 29.98 in1015.2 mb 0.00 in0.0 mm 0.00 in0.0 mm 0.00 in0.0 mm
01:45 AM 58.1°F14.5°C 42.4°F5.8°C 56% 5.0 mph SW8.0 kmh SW 9.0 mph14.5 kmh 29.99 in1015.6 mb 0.00 in0.0 mm 0.00 in0.0 mm 0.00 in0.0 mm
01:30 AM 58.3°F14.6°C 42.6°F5.9°C 56% 6.0 mph SW9.7 kmh SW 9.0 mph14.5 kmh 30.00 in1015.9 mb 0.00 in0.0 mm 0.00 in0.0 mm 0.00 in0.0 mm
01:15 AM 58.3°F14.6°C 42.6°F5.9°C 56% 6.0 mph SW9.7 kmh SW 14.0 mph22.5 kmh 29.99 in1015.6 mb 0.00 in0.0 mm 0.00 in0.0 mm 0.00 in0.0 mm
01:00 AM 58.5°F14.7°C 42.8°F6.0°C 56% 5.0 mph SW8.0 kmh SW 13.0 mph20.9 kmh 29.99 in1015.6 mb 0.00 in0.0 mm 0.00 in0.0 mm 0.00 in0.0 mm
12:45 AM 59.2°F15.1°C 42.4°F5.8°C 54% 6.0 mph SW9.7 kmh SW 12.0 mph19.3 kmh 29.99 in1015.6 mb 0.00 in0.0 mm 0.00 in0.0 mm 0.00 in0.0 mm
12:30 AM 59.5°F15.3°C 41.9°F5.5°C 52% 7.0 mph SSW11.3 kmh SSW 11.0 mph17.7 kmh 29.99 in1015.6 mb 0.00 in0.0 mm 0.00 in0.0 mm 0.00 in0.0 mm
12:15 AM 60.3°F15.7°C 42.1°F5.6°C 51% 8.0 mph SSW12.9 kmh SSW 14.0 mph22.5 kmh 29.99 in1015.6 mb 0.00 in0.0 mm 0.00 in0.0 mm 0.00 in0.0 mm
12:00 AM 60.3°F15.7°C 42.1°F5.6°C 51% 7.0 mph SSW11.3 kmh SSW 13.0 mph20.9 kmh 29.99 in1015.6 mb 0.00 in0.0 mm 0.00 in0.0 mm 0.00 in0.0 mm